createdAt,value
2018-07-13T00:00:20.876Z,77.33
2018-07-13T00:01:20.876Z,78.48
2018-07-13T00:02:20.854Z,78.85
2018-07-13T00:03:20.837Z,78.85
2018-07-13T00:04:20.829Z,78.55
2018-07-13T00:05:20.815Z,76.82
2018-07-13T00:06:20.812Z,77.23
2018-07-13T00:07:20.803Z,77.33
2018-07-13T00:08:20.810Z,77.64
2018-07-13T00:09:20.776Z,77.53
2018-07-13T00:10:20.769Z,77.33
2018-07-13T00:11:20.751Z,77.33
2018-07-13T00:12:20.743Z,77.57
2018-07-13T00:13:20.740Z,78.55
2018-07-13T00:14:20.712Z,78.38
2018-07-13T00:15:20.704Z,78.75
2018-07-13T00:16:20.701Z,78.58
2018-07-13T00:17:20.791Z,77.77
2018-07-13T00:18:20.673Z,78.58
2018-07-13T00:19:20.674Z,78.58
2018-07-13T00:20:20.647Z,78.58
2018-07-13T00:21:20.640Z,78.78
2018-07-13T00:22:20.639Z,79.08
2018-07-13T00:23:20.614Z,79.08
2018-07-13T00:24:20.607Z,79.19
2018-07-13T00:25:20.594Z,79.53
2018-07-13T00:26:20.592Z,79.59
2018-07-13T00:27:20.569Z,79.53
2018-07-13T00:28:20.564Z,79.93
2018-07-13T00:29:20.629Z,79.93
2018-07-13T00:30:20.538Z,80.54
2018-07-13T00:31:20.530Z,79.93
2018-07-13T00:32:20.530Z,79.93
2018-07-13T00:33:20.518Z,80.04
2018-07-13T00:34:20.506Z,80.13
2018-07-13T00:35:20.480Z,80.84
2018-07-13T00:36:20.473Z,80.38
2018-07-13T00:37:20.470Z,80.07
2018-07-13T00:38:20.454Z,80.47
2018-07-13T00:39:20.444Z,81.15
2018-07-13T00:40:20.426Z,80.78
2018-07-13T00:41:20.421Z,79.97
2018-07-13T00:42:20.404Z,81.59
2018-07-13T00:43:20.393Z,80.88
2018-07-13T00:44:20.384Z,80.78
2018-07-13T00:45:20.380Z,80.68
2018-07-13T00:46:20.368Z,80.68
2018-07-13T00:47:20.348Z,81.39
2018-07-13T00:48:20.339Z,81.29
2018-07-13T00:49:20.332Z,81.39
2018-07-13T00:50:20.328Z,81.09
2018-07-13T00:51:20.318Z,81.18
2018-07-13T00:52:20.318Z,82.20
2018-07-13T00:53:20.280Z,81.39
2018-07-13T00:54:20.272Z,81.09
2018-07-13T00:55:20.366Z,82.40
2018-07-13T00:56:20.257Z,82.20
2018-07-13T00:57:20.251Z,81.99
2018-07-13T00:58:20.286Z,82.10
2018-07-13T00:59:20.217Z,82.44
2018-07-13T01:00:20.205Z,82.03
2018-07-13T01:01:20.205Z,82.34
2018-07-13T01:02:20.184Z,81.90
2018-07-13T01:03:20.191Z,82.34
2018-07-13T01:04:20.170Z,82.34
2018-07-13T01:05:20.151Z,82.50
2018-07-13T01:06:20.205Z,83.04
2018-07-13T01:07:20.128Z,82.54
2018-07-13T01:08:20.122Z,82.84
2018-07-13T01:09:20.103Z,83.35
2018-07-13T01:10:20.105Z,83.15
2018-07-13T01:11:20.084Z,83.04
2018-07-13T01:12:20.073Z,83.55
2018-07-13T01:13:20.062Z,83.65
2018-07-13T01:14:20.055Z,84.10
2018-07-13T01:15:20.041Z,83.90
2018-07-13T01:16:20.034Z,84.00
2018-07-13T01:17:20.016Z,84.30
2018-07-13T01:18:20.005Z,84.70
2018-07-13T01:19:19.992Z,84.41
2018-07-13T01:20:19.989Z,84.64
2018-07-13T01:21:19.990Z,84.55
2018-07-13T01:22:19.965Z,84.75
2018-07-13T01:23:19.952Z,84.64
2018-07-13T01:24:19.964Z,84.44
2018-07-13T01:25:19.937Z,84.75
2018-07-13T01:26:19.929Z,84.55
2018-07-13T01:27:19.941Z,84.75
2018-07-13T01:28:19.891Z,84.85
2018-07-13T01:29:19.897Z,84.85
2018-07-13T01:30:19.874Z,84.69
2018-07-13T01:31:19.872Z,85.09
2018-07-13T01:32:19.868Z,84.89
2018-07-13T01:33:19.842Z,85.30
2018-07-13T01:34:19.842Z,84.99
2018-07-13T01:35:19.832Z,85.19
2018-07-13T01:36:19.897Z,84.78
2018-07-13T01:37:19.798Z,85.39
2018-07-13T01:38:19.787Z,84.89
2018-07-13T01:39:19.785Z,85.60
2018-07-13T01:40:19.765Z,85.60
2018-07-13T01:41:19.777Z,86.21
2018-07-13T01:42:19.757Z,86.41
2018-07-13T01:43:19.727Z,86.25
2018-07-13T01:44:19.729Z,85.70
2018-07-13T01:45:19.718Z,86.15
2018-07-13T01:46:19.697Z,86.45
2018-07-13T01:47:19.702Z,86.25
2018-07-13T01:48:19.691Z,86.15
2018-07-13T01:49:19.665Z,86.25
2018-07-13T01:50:19.675Z,86.05
2018-07-13T01:51:19.638Z,86.86
2018-07-13T01:52:19.639Z,86.55
2018-07-13T01:53:19.623Z,86.45
2018-07-13T01:54:19.617Z,86.35
2018-07-13T01:55:19.608Z,86.76
2018-07-13T01:56:19.588Z,86.65
2018-07-13T01:57:19.576Z,86.55
2018-07-13T01:58:19.564Z,86.25
2018-07-13T01:59:19.557Z,87.06
2018-07-13T02:00:19.546Z,86.45
2018-07-13T02:01:19.540Z,86.86
2018-07-13T02:02:19.734Z,87.26
2018-07-13T02:03:19.516Z,86.90
2018-07-13T02:04:19.500Z,86.96
2018-07-13T02:05:19.499Z,87.97
2018-07-13T02:06:19.487Z,87.67
2018-07-13T02:07:19.475Z,88.52
2018-07-13T02:08:19.465Z,88.32
2018-07-13T02:09:19.442Z,87.00
2018-07-13T02:10:19.436Z,87.00
2018-07-13T02:11:19.428Z,87.30
2018-07-13T02:12:19.417Z,87.51
2018-07-13T02:13:19.409Z,88.01
2018-07-13T02:14:19.389Z,87.10
2018-07-13T02:15:19.370Z,87.92
2018-07-13T02:16:19.360Z,87.81
2018-07-13T02:17:19.356Z,88.21
2018-07-13T02:18:19.351Z,88.32
2018-07-13T02:19:19.328Z,87.71
2018-07-13T02:20:19.317Z,88.06
2018-07-13T02:21:19.409Z,88.36
2018-07-13T02:22:19.306Z,87.85
2018-07-13T02:23:19.282Z,88.26
2018-07-13T02:24:19.287Z,88.67
2018-07-13T02:25:19.281Z,88.26
2018-07-13T02:26:19.260Z,88.46
2018-07-13T02:27:19.244Z,88.16
2018-07-13T02:28:19.237Z,88.16
2018-07-13T02:29:19.233Z,89.01
2018-07-13T02:30:19.208Z,88.87
2018-07-13T02:31:19.200Z,88.60
2018-07-13T02:32:19.216Z,88.06
2018-07-13T02:33:19.173Z,88.60
2018-07-13T02:34:19.166Z,88.91
2018-07-13T02:35:19.153Z,89.98
2018-07-13T02:36:19.140Z,89.22
2018-07-13T02:37:19.133Z,89.22
2018-07-13T02:38:19.121Z,89.11
2018-07-13T02:39:19.111Z,89.42
2018-07-13T02:40:19.098Z,88.71
2018-07-13T02:41:19.094Z,88.50
2018-07-13T02:42:19.075Z,88.81
2018-07-13T02:43:19.059Z,89.22
2018-07-13T02:44:19.059Z,89.72
2018-07-13T02:45:19.066Z,88.81
2018-07-13T02:46:19.030Z,89.05
2018-07-13T02:47:19.021Z,89.11
2018-07-13T02:48:19.004Z,89.01
2018-07-13T02:49:18.994Z,89.72
2018-07-13T02:50:19.003Z,89.87
2018-07-13T02:51:18.984Z,89.76
2018-07-13T02:52:18.971Z,89.15
2018-07-13T02:53:18.975Z,89.31
2018-07-13T02:54:18.938Z,89.66
2018-07-13T02:55:18.926Z,89.56
2018-07-13T02:56:18.922Z,89.56
2018-07-13T02:57:18.915Z,89.36
2018-07-13T02:58:18.900Z,88.95
2018-07-13T02:59:18.884Z,88.95
2018-07-13T03:00:18.887Z,89.26
2018-07-13T03:01:18.875Z,89.36
2018-07-13T03:02:18.850Z,89.26
2018-07-13T03:03:18.850Z,89.36
2018-07-13T03:04:18.840Z,89.36
2018-07-13T03:05:18.817Z,89.76
2018-07-13T03:06:18.801Z,89.05
2018-07-13T03:07:18.801Z,89.15
2018-07-13T03:08:18.793Z,89.36
2018-07-13T03:09:18.775Z,88.95
2018-07-13T03:10:18.777Z,89.36
2018-07-13T03:11:18.755Z,89.05
2018-07-13T03:12:18.741Z,89.15
2018-07-13T03:13:18.729Z,89.15
2018-07-13T03:14:18.811Z,89.46
2018-07-13T03:15:18.705Z,89.46
2018-07-13T03:16:18.694Z,89.15
2018-07-13T03:17:18.693Z,88.95
2018-07-13T03:18:18.681Z,89.97
2018-07-13T03:19:18.660Z,89.05
2018-07-13T03:20:18.647Z,88.75
2018-07-13T03:21:18.637Z,89.22
2018-07-13T03:22:18.710Z,89.31
2018-07-13T03:23:18.626Z,88.65
2018-07-13T03:24:18.605Z,89.42
2018-07-13T03:25:18.592Z,89.76
2018-07-13T03:26:18.621Z,88.75
2018-07-13T03:27:18.588Z,88.71
2018-07-13T03:28:18.562Z,89.11
2018-07-13T03:29:18.645Z,88.81
2018-07-13T03:30:18.552Z,89.66
2018-07-13T03:31:18.531Z,88.71
2018-07-13T03:32:18.516Z,88.91
2018-07-13T03:33:18.504Z,89.56
2018-07-13T03:34:18.512Z,88.95
2018-07-13T03:35:18.483Z,89.05
2018-07-13T03:36:18.482Z,88.95
2018-07-13T03:37:18.470Z,88.34
2018-07-13T03:38:18.461Z,89.11
2018-07-13T03:39:18.437Z,89.52
2018-07-13T03:40:18.428Z,88.54
2018-07-13T03:41:18.449Z,88.81
2018-07-13T03:42:18.406Z,88.91
2018-07-13T03:43:18.399Z,88.95
2018-07-13T03:44:18.387Z,88.13
2018-07-13T03:45:18.602Z,88.20
2018-07-13T03:46:18.358Z,88.30
2018-07-13T03:47:18.355Z,88.24
2018-07-13T03:48:18.439Z,88.54
2018-07-13T03:49:18.326Z,88.10
2018-07-13T03:50:18.335Z,88.13
2018-07-13T03:51:18.306Z,88.60
2018-07-13T03:52:18.294Z,88.10
2018-07-13T03:53:18.289Z,88.20
2018-07-13T03:54:18.377Z,88.60
2018-07-13T03:55:18.277Z,88.10
2018-07-13T03:56:18.254Z,88.60
2018-07-13T03:57:18.236Z,88.10
2018-07-13T03:58:18.226Z,87.99
2018-07-13T03:59:18.231Z,87.69
2018-07-13T04:00:18.209Z,87.89
2018-07-13T04:01:18.206Z,87.69
2018-07-13T04:02:18.179Z,87.79
2018-07-13T04:03:18.171Z,87.59
2018-07-13T04:04:18.175Z,87.89
2018-07-13T04:05:18.149Z,87.89
2018-07-13T04:06:18.140Z,87.59
2018-07-13T04:07:18.144Z,87.04
2018-07-13T04:08:18.115Z,87.14
2018-07-13T04:09:18.112Z,88.06
2018-07-13T04:10:18.106Z,87.34
2018-07-13T04:11:18.080Z,87.45
2018-07-13T04:12:18.080Z,86.74
2018-07-13T04:13:18.063Z,86.94
2018-07-13T04:14:18.051Z,86.83
2018-07-13T04:15:18.039Z,86.94
2018-07-13T04:16:18.025Z,86.90
2018-07-13T04:17:18.031Z,86.69
2018-07-13T04:18:18.021Z,86.29
2018-07-13T04:19:17.999Z,86.90
2018-07-13T04:20:17.982Z,86.29
2018-07-13T04:21:17.973Z,86.29
2018-07-13T04:22:17.961Z,86.49
2018-07-13T04:23:17.957Z,86.39
2018-07-13T04:24:17.997Z,86.59
2018-07-13T04:25:17.929Z,86.08
2018-07-13T04:26:17.921Z,86.39
2018-07-13T04:27:17.908Z,86.29
2018-07-13T04:28:17.890Z,86.49
2018-07-13T04:29:17.881Z,86.15
2018-07-13T04:30:17.899Z,86.45
2018-07-13T04:31:17.872Z,86.35
2018-07-13T04:32:17.849Z,86.35
2018-07-13T04:33:17.835Z,86.45
2018-07-13T04:34:17.908Z,86.35
2018-07-13T04:35:17.815Z,86.65
2018-07-13T04:36:17.823Z,85.64
2018-07-13T04:37:17.797Z,85.44
2018-07-13T04:38:17.779Z,84.93
2018-07-13T04:39:17.776Z,85.39
2018-07-13T04:40:17.763Z,85.09
2018-07-13T04:41:17.749Z,84.58
2018-07-13T04:42:17.747Z,85.39
2018-07-13T04:43:17.734Z,85.39
2018-07-13T04:44:17.745Z,85.30
2018-07-13T04:45:17.705Z,84.89
2018-07-13T04:46:17.692Z,84.69
2018-07-13T04:47:17.684Z,84.99
2018-07-13T04:48:17.876Z,84.78
2018-07-13T04:49:17.664Z,85.19
2018-07-13T04:50:17.696Z,84.38
2018-07-13T04:51:17.638Z,84.44
2018-07-13T04:52:17.634Z,84.64
2018-07-13T04:53:17.614Z,84.95
2018-07-13T04:54:17.616Z,84.75
2018-07-13T04:55:18.593Z,83.94
2018-07-13T04:56:17.630Z,84.10
2018-07-13T04:57:17.588Z,84.04
2018-07-13T04:58:17.565Z,84.00
2018-07-13T04:59:17.552Z,84.30
2018-07-13T05:00:17.538Z,83.59
2018-07-13T05:01:17.541Z,83.69
2018-07-13T05:02:17.532Z,83.69
2018-07-13T05:03:17.513Z,83.65
2018-07-13T05:04:17.505Z,83.45
2018-07-13T05:05:17.531Z,82.84
2018-07-13T05:06:17.555Z,83.55
2018-07-13T05:07:17.469Z,83.65
2018-07-13T05:08:17.448Z,83.25
2018-07-13T05:09:17.443Z,83.25
2018-07-13T05:10:17.456Z,83.04
2018-07-13T05:11:17.414Z,82.84
2018-07-13T05:12:17.408Z,82.30
2018-07-13T05:13:17.399Z,82.20
2018-07-13T05:14:17.399Z,82.30
2018-07-13T05:15:17.380Z,82.50
2018-07-13T05:16:17.359Z,82.50
2018-07-13T05:17:17.351Z,81.90
2018-07-13T05:18:17.341Z,81.90
2018-07-13T05:19:17.353Z,81.29
2018-07-13T05:20:17.335Z,81.39
2018-07-13T05:21:17.405Z,81.55
2018-07-13T05:22:17.307Z,81.55
2018-07-13T05:23:17.282Z,80.84
2018-07-13T05:24:17.278Z,81.05
2018-07-13T05:25:17.262Z,81.15
2018-07-13T05:26:18.244Z,80.04
2018-07-13T05:27:17.246Z,80.00
2018-07-13T05:28:17.225Z,80.20
2018-07-13T05:29:17.222Z,80.10
2018-07-13T05:30:19.225Z,80.60
2018-07-13T05:31:17.326Z,79.59
2018-07-13T05:32:17.202Z,80.00
2018-07-13T05:33:17.424Z,79.75
2018-07-13T05:34:17.195Z,79.75
2018-07-13T05:35:17.262Z,79.55
2018-07-13T05:36:17.266Z,79.55
2018-07-13T05:37:17.257Z,79.35
2018-07-13T05:38:17.173Z,79.75
2018-07-13T05:39:17.242Z,79.86
2018-07-13T05:40:17.103Z,79.15
2018-07-13T05:41:17.093Z,79.05
2018-07-13T05:42:17.094Z,78.91
2018-07-13T05:43:17.088Z,78.71
2018-07-13T05:44:17.072Z,78.64
2018-07-13T05:45:17.051Z,78.41
2018-07-13T05:46:17.213Z,78.50
2018-07-13T05:47:17.034Z,78.50
2018-07-13T05:48:17.018Z,78.50
2018-07-13T05:49:17.006Z,78.41
2018-07-13T05:50:17.002Z,78.06
2018-07-13T05:51:16.980Z,78.27
2018-07-13T05:52:16.968Z,77.97
2018-07-13T05:53:16.981Z,78.57
2018-07-13T05:54:16.962Z,77.26
2018-07-13T05:55:16.956Z,77.06
2018-07-13T05:56:16.941Z,77.56
2018-07-13T05:57:16.932Z,78.27
2018-07-13T05:58:16.912Z,77.22
2018-07-13T05:59:16.896Z,77.12
2018-07-13T06:00:16.896Z,77.22
2018-07-13T06:01:16.878Z,77.12
2018-07-13T06:02:16.865Z,77.73
2018-07-13T06:03:16.859Z,76.62
2018-07-13T06:04:16.835Z,76.38
2018-07-13T06:05:16.832Z,76.78
2018-07-13T06:06:16.826Z,76.58
2018-07-13T06:07:16.814Z,76.78
2018-07-13T06:08:16.808Z,76.84
2018-07-13T06:09:16.785Z,76.14
2018-07-13T06:10:16.780Z,76.24
2018-07-13T06:11:16.776Z,75.43
2018-07-13T06:12:16.753Z,75.94
2018-07-13T06:13:16.760Z,75.74
2018-07-13T06:14:16.729Z,75.13
2018-07-13T06:15:16.737Z,74.69
2018-07-13T06:16:16.708Z,75.20
2018-07-13T06:17:16.704Z,75.10
2018-07-13T06:18:16.693Z,74.69
2018-07-13T06:19:16.680Z,74.90
2018-07-13T06:20:16.683Z,74.69
2018-07-13T06:21:16.658Z,75.06
2018-07-13T06:22:16.655Z,73.75
2018-07-13T06:23:17.624Z,74.15
2018-07-13T06:24:16.736Z,73.65
2018-07-13T06:25:16.634Z,73.61
2018-07-13T06:26:16.602Z,72.84
2018-07-13T06:27:16.587Z,71.09
2018-07-13T06:28:16.591Z,68.68
2018-07-13T06:29:16.574Z,67.42
2018-07-13T06:30:17.607Z,65.15
2018-07-13T06:31:16.570Z,63.61
2018-07-13T06:32:16.530Z,62.75
2018-07-13T06:33:16.543Z,62.52
2018-07-13T06:34:16.519Z,61.57
2018-07-13T06:35:16.517Z,60.53
2018-07-13T06:36:16.498Z,60.33
2018-07-13T06:37:16.478Z,59.61
2018-07-13T06:38:16.465Z,58.88
2018-07-13T06:39:16.975Z,58.36
2018-07-13T06:40:16.447Z,57.73
2018-07-13T06:41:16.452Z,56.40
2018-07-13T06:42:16.420Z,57.17
2018-07-13T06:43:16.429Z,56.65
2018-07-13T06:44:16.423Z,55.95
2018-07-13T06:45:21.426Z,55.35
2018-07-13T06:46:16.390Z,55.13
2018-07-13T06:47:16.378Z,54.60
2018-07-13T06:48:16.380Z,54.41
2018-07-13T06:49:16.358Z,54.21
2018-07-13T06:50:16.354Z,54.21
2018-07-13T06:51:16.335Z,53.78
2018-07-13T06:52:16.326Z,53.98
2018-07-13T06:53:16.306Z,53.39
2018-07-13T06:54:16.298Z,53.78
2018-07-13T06:55:16.301Z,52.89
2018-07-13T06:56:16.265Z,53.28
2018-07-13T06:57:16.257Z,53.09
2018-07-13T06:58:16.249Z,53.26
2018-07-13T06:59:16.245Z,53.06
2018-07-13T07:00:23.287Z,52.47
2018-07-13T07:01:16.245Z,53.06
2018-07-13T07:02:16.233Z,53.09
2018-07-13T07:03:16.211Z,53.78
2018-07-13T07:04:16.184Z,53.71
2018-07-13T07:05:16.180Z,54.43
2018-07-13T07:06:16.171Z,55.05
2018-07-13T07:07:16.161Z,56.21
2018-07-13T07:08:16.151Z,56.43
2018-07-13T07:09:16.152Z,57.86
2018-07-13T07:10:16.141Z,58.98
2018-07-13T07:11:16.114Z,58.08
2018-07-13T07:12:16.208Z,59.01
2018-07-13T07:13:16.114Z,59.83
2018-07-13T07:14:16.085Z,61.04
2018-07-13T07:15:16.410Z,60.66
2018-07-13T07:16:16.073Z,61.29
2018-07-13T07:17:16.045Z,61.69
2018-07-13T07:18:16.054Z,62.09
2018-07-13T07:19:16.069Z,62.29
2018-07-13T07:20:16.907Z,61.79
2018-07-13T07:21:16.005Z,62.19
2018-07-13T07:22:16.040Z,62.02
2018-07-13T07:23:15.982Z,61.92
2018-07-13T07:24:15.989Z,62.35
2018-07-13T07:25:15.990Z,62.02
2018-07-13T07:26:15.950Z,62.45
2018-07-13T07:27:15.936Z,62.65
2018-07-13T07:28:15.951Z,62.98
2018-07-13T07:29:15.916Z,63.78
2018-07-13T07:30:15.914Z,64.22
2018-07-13T07:31:15.900Z,63.92
2018-07-13T07:32:15.920Z,64.42
2018-07-13T07:33:15.879Z,65.52
2018-07-13T07:34:15.866Z,65.52
2018-07-13T07:35:15.848Z,64.72
2018-07-13T07:36:15.849Z,64.72
2018-07-13T07:37:15.966Z,64.72
2018-07-13T07:38:15.817Z,64.92
2018-07-13T07:39:15.836Z,64.72
2018-07-13T07:40:15.808Z,64.92
2018-07-13T07:41:15.788Z,64.89
2018-07-13T07:42:15.768Z,65.42
2018-07-13T07:43:15.786Z,64.81
2018-07-13T07:44:15.758Z,64.42
2018-07-13T07:45:17.057Z,65.52
2018-07-13T07:46:15.731Z,65.12
2018-07-13T07:47:15.723Z,65.12
2018-07-13T07:48:15.713Z,65.22
2018-07-13T07:49:15.695Z,65.85
2018-07-13T07:50:15.692Z,65.15
2018-07-13T07:51:15.684Z,65.85
2018-07-13T07:52:15.676Z,65.75
2018-07-13T07:53:15.657Z,65.05
2018-07-13T07:54:15.655Z,66.35
2018-07-13T07:55:15.638Z,65.65
2018-07-13T07:56:15.625Z,65.25
2018-07-13T07:57:15.759Z,65.95
2018-07-13T07:58:15.599Z,67.55
2018-07-13T07:59:15.591Z,65.85
2018-07-13T08:00:16.283Z,65.55
2018-07-13T08:01:15.589Z,66.95
2018-07-13T08:02:15.577Z,67.25
2018-07-13T08:03:15.552Z,66.92
2018-07-13T08:04:15.542Z,66.22
2018-07-13T08:05:15.516Z,65.31
2018-07-13T08:06:15.635Z,66.92
2018-07-13T08:07:16.092Z,65.39
2018-07-13T08:08:15.478Z,65.09
2018-07-13T08:09:15.485Z,65.09
2018-07-13T08:10:15.490Z,64.95
2018-07-13T08:11:15.454Z,64.25
2018-07-13T08:12:15.441Z,65.45
2018-07-13T08:13:15.446Z,64.95
2018-07-13T08:14:15.641Z,64.36
2018-07-13T08:15:16.106Z,64.06
2018-07-13T08:16:15.410Z,63.75
2018-07-13T08:17:15.385Z,64.15
2018-07-13T08:18:15.369Z,63.25
2018-07-13T08:19:15.368Z,64.15
2018-07-13T08:20:15.359Z,64.15
2018-07-13T08:21:15.353Z,64.06
2018-07-13T08:22:15.336Z,64.39
2018-07-13T08:23:15.336Z,64.78
2018-07-13T08:24:15.344Z,64.39
2018-07-13T08:25:15.738Z,65.09
2018-07-13T08:26:15.302Z,65.59
2018-07-13T08:27:15.289Z,64.36
2018-07-13T08:28:15.279Z,64.65
2018-07-13T08:29:15.251Z,64.48
2018-07-13T08:30:18.675Z,64.39
2018-07-13T08:31:15.225Z,64.39
2018-07-13T08:32:15.226Z,64.69
2018-07-13T08:33:15.257Z,64.89
2018-07-13T08:34:15.232Z,65.16
2018-07-13T08:35:15.197Z,64.65
2018-07-13T08:36:15.169Z,65.45
2018-07-13T08:37:15.169Z,64.45
2018-07-13T08:38:15.287Z,64.65
2018-07-13T08:39:15.148Z,64.86
2018-07-13T08:40:15.132Z,64.55
2018-07-13T08:41:15.131Z,64.45
2018-07-13T08:42:15.101Z,64.65
2018-07-13T08:43:15.139Z,64.06
2018-07-13T08:44:15.094Z,64.36
2018-07-13T08:45:26.796Z,64.36
2018-07-13T08:46:16.115Z,64.45
2018-07-13T08:47:15.073Z,63.56
2018-07-13T08:48:15.042Z,63.35
2018-07-13T08:49:15.034Z,63.95
2018-07-13T08:50:15.027Z,63.65
2018-07-13T08:51:15.097Z,64.62
2018-07-13T08:52:14.995Z,64.62
2018-07-13T08:53:15.016Z,63.62
2018-07-13T08:54:15.022Z,63.69
2018-07-13T08:55:14.972Z,63.32
2018-07-13T08:56:15.056Z,62.39
2018-07-13T08:57:14.973Z,62.22
2018-07-13T08:58:14.929Z,62.22
2018-07-13T08:59:14.932Z,61.72
2018-07-13T09:00:24.988Z,62.32
2018-07-13T09:01:14.903Z,62.92
2018-07-13T09:02:14.889Z,63.53
2018-07-13T09:03:14.884Z,63.02
2018-07-13T09:04:15.203Z,61.92
2018-07-13T09:05:14.859Z,61.82
2018-07-13T09:06:14.845Z,62.42
2018-07-13T09:07:14.831Z,61.72
2018-07-13T09:08:17.205Z,62.12
2018-07-13T09:09:14.810Z,60.69
2018-07-13T09:10:14.819Z,58.99
2018-07-13T09:11:14.931Z,59.59
2018-07-13T09:12:14.796Z,60.19
2018-07-13T09:13:14.858Z,60.79
2018-07-13T09:14:14.778Z,60.79
2018-07-13T09:15:14.763Z,60.79
2018-07-13T09:16:14.865Z,60.96
2018-07-13T09:17:14.727Z,61.36
2018-07-13T09:18:14.789Z,60.27
2018-07-13T09:19:14.733Z,59.86
2018-07-13T09:20:14.737Z,60.69
2018-07-13T09:21:14.691Z,60.86
2018-07-13T09:22:14.665Z,60.66
2018-07-13T09:23:14.654Z,60.36
2018-07-13T09:24:14.701Z,60.86
2018-07-13T09:25:14.642Z,60.66
2018-07-13T09:26:15.962Z,61.16
2018-07-13T09:27:14.607Z,61.36
2018-07-13T09:28:14.647Z,60.74
2018-07-13T09:29:14.594Z,60.33
2018-07-13T09:30:15.702Z,58.64
2018-07-13T09:31:14.605Z,58.73
2018-07-13T09:32:14.558Z,58.84
2018-07-13T09:33:14.567Z,59.04
2018-07-13T09:34:14.532Z,58.41
2018-07-13T09:35:14.543Z,58.73
2018-07-13T09:36:14.515Z,59.23
2018-07-13T09:37:14.494Z,60.00
2018-07-13T09:38:14.606Z,59.83
2018-07-13T09:39:14.476Z,60.33
2018-07-13T09:40:14.482Z,59.66
2018-07-13T09:41:14.789Z,60.33
2018-07-13T09:42:14.456Z,60.44
2018-07-13T09:43:14.454Z,59.94
2018-07-13T09:44:14.448Z,60.61
2018-07-13T09:45:14.410Z,58.14
2018-07-13T09:46:14.533Z,57.51
2018-07-13T09:47:14.394Z,57.31
2018-07-13T09:48:14.371Z,56.81
2018-07-13T09:49:14.363Z,57.51
2018-07-13T09:50:14.366Z,57.39
2018-07-13T09:51:14.346Z,58.38
2018-07-13T09:52:14.346Z,58.18
2018-07-13T09:53:14.332Z,56.79
2018-07-13T09:54:14.432Z,57.58
2018-07-13T09:55:14.359Z,56.79
2018-07-13T09:56:14.299Z,58.18
2018-07-13T09:57:14.313Z,57.71
2018-07-13T09:58:14.370Z,57.58
2018-07-13T09:59:14.266Z,56.98
2018-07-13T10:00:16.846Z,57.48
2018-07-13T10:01:14.350Z,56.59
2018-07-13T10:02:14.311Z,56.29
2018-07-13T10:03:14.444Z,56.88
2018-07-13T10:04:14.187Z,56.59
2018-07-13T10:05:14.300Z,56.79
2018-07-13T10:06:14.167Z,56.48
2018-07-13T10:07:14.175Z,57.35
2018-07-13T10:08:14.310Z,56.85
2018-07-13T10:09:14.267Z,55.86
2018-07-13T10:10:14.155Z,56.46
2018-07-13T10:11:15.419Z,56.46
2018-07-13T10:12:14.109Z,56.16
2018-07-13T10:13:14.104Z,56.76
2018-07-13T10:14:14.091Z,56.66
2018-07-13T10:15:14.751Z,56.33
2018-07-13T10:16:14.169Z,55.24
2018-07-13T10:17:14.089Z,55.54
2018-07-13T10:18:14.046Z,55.13
2018-07-13T10:19:14.039Z,55.83
2018-07-13T10:20:14.033Z,56.03
2018-07-13T10:21:14.008Z,54.81
2018-07-13T10:22:13.993Z,54.51
2018-07-13T10:23:14.094Z,54.61
2018-07-13T10:24:13.970Z,54.19
2018-07-13T10:25:13.962Z,52.99
2018-07-13T10:26:13.951Z,53.49
2018-07-13T10:27:13.956Z,53.59
2018-07-13T10:28:13.941Z,52.00
2018-07-13T10:29:13.937Z,51.89
2018-07-13T10:30:13.902Z,52.47
2018-07-13T10:31:14.047Z,53.36
2018-07-13T10:32:13.911Z,51.67
2018-07-13T10:33:13.870Z,51.79
2018-07-13T10:34:13.876Z,50.08
2018-07-13T10:35:13.865Z,51.17
2018-07-13T10:36:13.846Z,51.27
2018-07-13T10:37:13.831Z,51.17
2018-07-13T10:38:13.818Z,51.67
2018-07-13T10:39:13.829Z,51.59
2018-07-13T10:40:13.815Z,50.68
2018-07-13T10:41:13.827Z,50.38
2018-07-13T10:42:13.784Z,50.57
2018-07-13T10:43:13.776Z,50.98
2018-07-13T10:44:13.758Z,48.58
2018-07-13T10:45:13.878Z,50.08
2018-07-13T10:46:13.743Z,50.68
2018-07-13T10:47:13.741Z,50.27
2018-07-13T10:48:13.714Z,50.48
2018-07-13T10:49:13.718Z,50.38
2018-07-13T10:50:13.700Z,52.14
2018-07-13T10:51:13.680Z,51.54
2018-07-13T10:52:13.670Z,50.25
2018-07-13T10:53:13.680Z,51.54
2018-07-13T10:54:13.678Z,51.05
2018-07-13T10:55:13.642Z,51.54
2018-07-13T10:56:13.625Z,52.02
2018-07-13T10:57:13.648Z,50.93
2018-07-13T10:58:13.710Z,48.96
2018-07-13T10:59:13.635Z,50.45
2018-07-13T11:01:13.568Z,48.96
2018-07-13T11:01:14.231Z,51.75
2018-07-13T11:02:13.562Z,49.55
2018-07-13T11:03:13.568Z,50.25
2018-07-13T11:04:13.547Z,50.35
2018-07-13T11:05:13.531Z,49.33
2018-07-13T11:06:13.515Z,48.94
2018-07-13T11:07:13.505Z,49.23
2018-07-13T11:08:13.493Z,49.23
2018-07-13T11:09:13.484Z,49.73
2018-07-13T11:10:13.492Z,50.23
2018-07-13T11:11:13.481Z,49.93
2018-07-13T11:12:13.456Z,49.71
2018-07-13T11:13:13.460Z,47.13
2018-07-13T11:14:13.454Z,47.70
2018-07-13T11:15:13.424Z,48.10
2018-07-13T11:16:13.410Z,47.17
2018-07-13T11:17:13.545Z,46.98
2018-07-13T11:18:13.387Z,47.28
2018-07-13T11:19:13.390Z,46.88
2018-07-13T11:20:13.358Z,46.88
2018-07-13T11:21:13.459Z,47.67
2018-07-13T11:22:13.354Z,47.17
2018-07-13T11:23:13.365Z,46.98
2018-07-13T11:24:13.331Z,48.17
2018-07-13T11:25:13.305Z,47.17
2018-07-13T11:26:13.300Z,48.27
2018-07-13T11:27:16.093Z,48.10
2018-07-13T11:29:26.341Z,48.83
2018-07-13T11:30:27.313Z,48.74
2018-07-13T11:31:27.302Z,49.04
2018-07-13T11:32:27.289Z,48.96
2018-07-13T11:33:27.284Z,49.16
2018-07-13T11:34:27.278Z,49.33
2018-07-13T11:35:27.266Z,49.13
2018-07-13T11:36:27.252Z,47.34
2018-07-13T11:37:27.296Z,48.32
2018-07-13T11:38:30.607Z,46.84
2018-07-13T11:39:27.215Z,47.64
